KGCD

Grant Co Regional / Ogilvie Field Airport

John Day, Oregon, USA
METAR KGCD 200055Z AUTO 20004KT 10SM SCT055 SCT100 01/M02 A2997 RMK AO2 T00091021
Observed Flight Rules
Jan-20 @ 00:55 UTC (26 minutes ago) Visual Flight Rules
Wind Visibility Clouds
200° at 4 knots 10 miles
  • Scattered at 5,500' AGL
  • Scattered at 10,000' AGL
Temperatures Readings
Current 1°C / 34°F
Dewpoint -2°C / 28°F
Humidity 81%
Altimeter 29.97" Hg
Pressure 1015 hPa
Elevation 1127
METAR KGCD 200055Z AUTO 20004KT 10SM SCT055 SCT100 01/M02 A2997 RMK AO2 T00091021
Observed Flight Rules
Jan-20 @ 00:55 UTC
(26 minutes ago)
VFR
Wind Visibility
200° at 4 knots 10 miles
Clouds
  • Scattered at 5,500' AGL
  • Scattered at 10,000' AGL
Temperature Dewpoint
1°C / 34°F -2°C / 28°F
Humidity Altimeter Pressure
81% 29.97" Hg 1015 hPa